Time;durP1;ratioP1;P1;durP2;ratioP2;P2;SDS_P1;SDS_P2;PMS_P1;PMS_P2;Temp;Humidity;BMP_temperature;BMP_pressure;BME280_temperature;BME280_humidity;BME280_pressure;Samples;Min_cycle;Max_cycle;Signal;HPM_P1;HPM_P2
2023/03/02 00:02:07;;;;;;;;;;;;;;;;;;5113780;28;19919;-95
2023/03/02 00:04:33;;;;;;;;;;;;;;;;;;5104043;27;19930;-94
2023/03/02 00:06:59;;;;;;;;;;;;;;;;;;5117799;27;19919;-95
2023/03/02 00:09:25;;;;;;;;;;;;;;;;;;5120506;27;19970;-95
2023/03/02 00:11:51;;;;;;;;;;;;;;;;;;5110426;27;20009;-95
2023/03/02 00:20:12;;;;;;;;;;;;;;;;;;5137181;27;20295;-94
2023/03/02 00:22:38;;;;;;;;;;;;;;;;;;5120677;27;19926;-95
2023/03/02 00:25:21;;;;;;;;;;;;;;;;;;5120893;27;20379;-94
2023/03/02 00:27:47;;;;;;;;;;;;;;;;;;5120395;27;19919;-95
2023/03/02 00:30:13;;;;;;;;;;;;;;;;;;5120211;27;19927;-94
2023/03/02 00:32:39;;;;;;;;;;;;;;;;;;5120370;27;20276;-94
2023/03/02 00:35:05;;;;;;;;;;;;;;;;;;5109940;28;19920;-94
2023/03/02 00:37:32;;;;;;;;;;;;;;;;;;5114151;27;20324;-94
2023/03/02 00:39:58;;;;;;;;;;;;;;;;;;5102486;27;20309;-95
2023/03/02 00:42:24;;;;;;;;;;;;;;;;;;5102837;28;20017;-95
2023/03/02 00:44:50;;;;;;;;;;;;;;;;;;5105275;28;19968;-95
2023/03/02 00:47:16;;;;;;;;;;;;;;;;;;5105659;28;20394;-95
2023/03/02 00:49:47;;;;;;;;;;;;;;;;;;5102391;28;19933;-95
2023/03/02 00:52:13;;;;;;;;;;;;;;;;;;5100278;28;19934;-95
2023/03/02 00:54:39;;;;;;;;;;;;;;;;;;5101463;27;19919;-95
2023/03/02 00:57:05;;;;;;;;;;;;;;;;;;5103637;27;19919;-95
2023/03/02 00:59:31;;;;;;;;;;;;;;;;;;5103038;27;19919;-94
2023/03/02 01:01:57;;;;;;;;;;;;;;;;;;5112691;27;19942;-95
2023/03/02 01:04:23;;;;;;;;;;;;;;;;;;5123417;27;20492;-93
2023/03/02 01:06:56;;;;;;;;;;;;;;;;;;5110484;27;19920;-94
2023/03/02 01:09:37;;;;;;;;;;;;;;;;;;5106371;27;19946;-95
2023/03/02 01:12:04;;;;;;;;;;;;;;;;;;5120831;27;19963;-93
2023/03/02 01:14:30;;;;;;;;;;;;;;;;;;5103610;27;19920;-93
2023/03/02 01:16:56;;;;;;;;;;;;;;;;;;5103379;27;19942;-93
2023/03/02 01:19:36;;;;;;;;;;;;;;;;;;5119779;27;19930;-92
2023/03/02 01:22:02;;;;;;;;;;;;;;;;;;5103652;27;19919;-95
2023/03/02 01:24:28;;;;;;;;;;;;;;;;;;5102611;27;20380;-93
2023/03/02 01:26:54;;;;;;;;;;;;;;;;;;5102667;27;19920;-93
2023/03/02 01:29:20;;;;;;;;;;;;;;;;;;5102447;27;20376;-94
2023/03/02 01:31:46;;;;;;;;;;;;;;;;;;5103113;27;19923;-94
2023/03/02 01:34:12;;;;;;;;;;;;;;;;;;5102187;27;19926;-93
2023/03/02 01:39:31;;;;;;;;;;;;;;;;;;5124591;27;20351;-93
2023/03/02 01:41:57;;;;;;;;;;;;;;;;;;5119869;27;19923;-94
2023/03/02 01:44:23;;;;;;;;;;;;;;;;;;5102575;27;19923;-93
2023/03/02 01:46:49;;;;;;;;;;;;;;;;;;5102467;27;20287;-93
2023/03/02 01:49:15;;;;;;;;;;;;;;;;;;5110644;27;19925;-93
2023/03/02 01:51:41;;;;;;;;;;;;;;;;;;5125060;27;19975;-93
2023/03/02 01:54:07;;;;;;;;;;;;;;;;;;5117740;27;19972;-94
2023/03/02 01:56:33;;;;;;;;;;;;;;;;;;5119247;27;19989;-93
2023/03/02 01:59:00;;;;;;;;;;;;;;;;;;5121593;27;19920;-92
2023/03/02 02:01:26;;;;;;;;;;;;;;;;;;5138185;27;19919;-93
2023/03/02 02:03:52;;;;;;;;;;;;;;;;;;5122194;27;19927;-93
2023/03/02 02:06:18;;;;;;;;;;;;;;;;;;5116021;27;19919;-93
2023/03/02 02:08:44;;;;;;;;;;;;;;;;;;5120123;27;19919;-91
2023/03/02 02:11:10;;;;;;;;;;;;;;;;;;5128756;27;20372;-94
2023/03/02 02:13:36;;;;;;;;;;;;;;;;;;5122682;27;19950;-94
2023/03/02 02:16:02;;;;;;;;;;;;;;;;;;5116096;27;20384;-94
2023/03/02 02:18:38;;;;;;;;;;;;;;;;;;5104442;27;19926;-93
2023/03/02 02:21:04;;;;;;;;;;;;;;;;;;5117774;27;20006;-94
2023/03/02 02:23:30;;;;;;;;;;;;;;;;;;5120801;27;20364;-93
2023/03/02 02:25:57;;;;;;;;;;;;;;;;;;5122604;27;19925;-94
2023/03/02 02:28:29;;;;;;;;;;;;;;;;;;5122000;27;20142;-94
2023/03/02 02:30:55;;;;;;;;;;;;;;;;;;5121681;27;19923;-94
2023/03/02 02:33:21;;;;;;;;;;;;;;;;;;5122090;27;20009;-94
2023/03/02 02:35:47;;;;;;;;;;;;;;;;;;5122222;27;20442;-95
2023/03/02 02:38:13;;;;;;;;;;;;;;;;;;5129897;27;20010;-94
2023/03/02 02:40:38;;;;;;;;;;;;;;;;;;5142291;27;19918;-94
2023/03/02 02:43:04;;;;;;;;;;;;;;;;;;5142950;27;19919;-95
2023/03/02 02:45:30;;;;;;;;;;;;;;;;;;5142676;27;20001;-94
2023/03/02 02:47:56;;;;;;;;;;;;;;;;;;5142420;27;19966;-95
2023/03/02 02:50:22;;;;;;;;;;;;;;;;;;5141967;27;20395;-93
2023/03/02 02:52:48;;;;;;;;;;;;;;;;;;5142049;27;19971;-94
2023/03/02 02:55:17;;;;;;;;;;;;;;;;;;5147332;27;19972;-94
2023/03/02 02:57:43;;;;;;;;;;;;;;;;;;5113744;27;19922;-94
2023/03/02 03:00:11;;;;;;;;;;;;;;;;;;5121675;27;19919;-95
2023/03/02 03:02:36;;;;;;;;;;;;;;;;;;5122463;27;20348;-94
2023/03/02 03:05:02;;;;;;;;;;;;;;;;;;5122101;27;19963;-94
2023/03/02 03:07:28;;;;;;;;;;;;;;;;;;5121951;27;19919;-95
2023/03/02 03:09:54;;;;;;;;;;;;;;;;;;5121616;27;19926;-95
2023/03/02 03:12:20;;;;;;;;;;;;;;;;;;5121903;27;19965;-95
2023/03/02 03:14:46;;;;;;;;;;;;;;;;;;5121407;27;19965;-95
2023/03/02 03:17:25;;;;;;;;;;;;;;;;;;5121021;27;19926;-95
2023/03/02 03:19:51;;;;;;;;;;;;;;;;;;5121548;27;19958;-95
2023/03/02 03:22:17;;;;;;;;;;;;;;;;;;5121871;27;19979;-94
2023/03/02 03:24:43;;;;;;;;;;;;;;;;;;5105842;27;19973;-94
2023/03/02 03:27:09;;;;;;;;;;;;;;;;;;5101174;27;20436;-96
2023/03/02 03:29:35;;;;;;;;;;;;;;;;;;5103283;27;19919;-95
2023/03/02 03:32:01;;;;;;;;;;;;;;;;;;5121185;27;19923;-93
2023/03/02 03:34:27;;;;;;;;;;;;;;;;;;5114937;28;20354;-95
2023/03/02 03:36:53;;;;;;;;;;;;;;;;;;5101214;27;19919;-95
2023/03/02 03:39:18;;;;;;;;;;;;;;;;;;5100470;28;19945;-94
2023/03/02 03:41:44;;;;;;;;;;;;;;;;;;5100791;28;19919;-93
2023/03/02 03:44:10;;;;;;;;;;;;;;;;;;5101077;28;19920;-93
2023/03/02 03:46:36;;;;;;;;;;;;;;;;;;5101019;28;19919;-94
2023/03/02 03:49:02;;;;;;;;;;;;;;;;;;5100539;28;19926;-93
2023/03/02 03:51:33;;;;;;;;;;;;;;;;;;5100849;28;19971;-94
2023/03/02 03:54:00;;;;;;;;;;;;;;;;;;5100639;28;19971;-93
2023/03/02 03:56:25;;;;;;;;;;;;;;;;;;5100796;28;20006;-94
2023/03/02 03:59:04;;;;;;;;;;;;;;;;;;5100788;28;20414;-95
2023/03/02 04:01:33;;;;;;;;;;;;;;;;;;5101153;28;19980;-94
2023/03/02 04:03:59;;;;;;;;;;;;;;;;;;5100550;28;19919;-94
2023/03/02 04:06:25;;;;;;;;;;;;;;;;;;5100713;28;20372;-94
2023/03/02 04:08:51;;;;;;;;;;;;;;;;;;5100537;28;19923;-94
2023/03/02 04:11:17;;;;;;;;;;;;;;;;;;5099957;28;19927;-93
2023/03/02 04:13:43;;;;;;;;;;;;;;;;;;5100485;28;20325;-92
2023/03/02 04:16:09;;;;;;;;;;;;;;;;;;5099929;28;20025;-93
2023/03/02 04:18:35;;;;;;;;;;;;;;;;;;5100204;28;19919;-93
2023/03/02 04:21:00;;;;;;;;;;;;;;;;;;5116725;28;20719;-93
2023/03/02 04:23:26;;;;;;;;;;;;;;;;;;5099924;28;20006;-92
2023/03/02 04:25:52;;;;;;;;;;;;;;;;;;5100070;28;20292;-93
2023/03/02 04:28:18;;;;;;;;;;;;;;;;;;5100178;28;19926;-93
2023/03/02 04:30:44;;;;;;;;;;;;;;;;;;5102967;27;20010;-93
2023/03/02 04:33:10;;;;;;;;;;;;;;;;;;5103614;27;19970;-93
2023/03/02 04:35:36;;;;;;;;;;;;;;;;;;5120534;27;19950;-93
2023/03/02 04:38:02;;;;;;;;;;;;;;;;;;5106321;27;19919;-94
2023/03/02 04:40:28;;;;;;;;;;;;;;;;;;5115538;27;19919;-93
2023/03/02 04:42:54;;;;;;;;;;;;;;;;;;5104156;27;19920;-93
2023/03/02 04:45:20;;;;;;;;;;;;;;;;;;5103438;27;19942;-94
2023/03/02 04:47:46;;;;;;;;;;;;;;;;;;5103354;27;19919;-94
2023/03/02 04:50:12;;;;;;;;;;;;;;;;;;5135095;27;19923;-93
2023/03/02 04:52:38;;;;;;;;;;;;;;;;;;5123607;27;19922;-93
2023/03/02 04:55:03;;;;;;;;;;;;;;;;;;5124097;27;19930;-94
2023/03/02 04:57:29;;;;;;;;;;;;;;;;;;5123963;27;19919;-94
2023/03/02 04:59:55;;;;;;;;;;;;;;;;;;5123713;27;19926;-93
2023/03/02 05:02:21;;;;;;;;;;;;;;;;;;5115897;27;19920;-93
2023/03/02 05:04:47;;;;;;;;;;;;;;;;;;5102002;27;20132;-94
2023/03/02 05:07:13;;;;;;;;;;;;;;;;;;5102642;27;19923;-94
2023/03/02 05:09:39;;;;;;;;;;;;;;;;;;5102288;27;19951;-94
2023/03/02 05:12:05;;;;;;;;;;;;;;;;;;5116113;27;19998;-93
2023/03/02 05:14:31;;;;;;;;;;;;;;;;;;5139154;27;19919;-93
2023/03/02 05:16:57;;;;;;;;;;;;;;;;;;5143976;27;19925;-94
2023/03/02 05:19:23;;;;;;;;;;;;;;;;;;5143477;27;19973;-94
2023/03/02 05:21:49;;;;;;;;;;;;;;;;;;5143827;27;19926;-92
2023/03/02 05:24:15;;;;;;;;;;;;;;;;;;5147448;27;19920;-94
2023/03/02 05:26:40;;;;;;;;;;;;;;;;;;5134984;27;19927;-93
2023/03/02 05:29:06;;;;;;;;;;;;;;;;;;5122205;27;19940;-92
2023/03/02 05:31:33;;;;;;;;;;;;;;;;;;5106784;27;19923;-93
2023/03/02 05:33:59;;;;;;;;;;;;;;;;;;5137216;27;19919;-93
2023/03/02 05:36:25;;;;;;;;;;;;;;;;;;5137684;27;19926;-92
2023/03/02 05:38:51;;;;;;;;;;;;;;;;;;5140394;27;20378;-93
2023/03/02 05:41:17;;;;;;;;;;;;;;;;;;5142396;27;19918;-93
2023/03/02 05:43:43;;;;;;;;;;;;;;;;;;5143395;27;19926;-94
2023/03/02 05:46:09;;;;;;;;;;;;;;;;;;5143739;27;19919;-94
2023/03/02 05:48:35;;;;;;;;;;;;;;;;;;5143258;27;19933;-94
2023/03/02 05:51:01;;;;;;;;;;;;;;;;;;5142867;27;19926;-95
2023/03/02 05:53:27;;;;;;;;;;;;;;;;;;5143083;27;19926;-93
2023/03/02 05:55:52;;;;;;;;;;;;;;;;;;5121865;27;20295;-94
2023/03/02 05:58:18;;;;;;;;;;;;;;;;;;5102164;27;19967;-94
2023/03/02 06:00:44;;;;;;;;;;;;;;;;;;5101793;27;20009;-94
2023/03/02 06:03:10;;;;;;;;;;;;;;;;;;5142543;27;19969;-94
2023/03/02 06:05:36;;;;;;;;;;;;;;;;;;5142547;27;19918;-93
2023/03/02 06:08:02;;;;;;;;;;;;;;;;;;5142662;27;20305;-93
2023/03/02 06:10:28;;;;;;;;;;;;;;;;;;5142214;27;19930;-94
2023/03/02 06:12:54;;;;;;;;;;;;;;;;;;5142861;27;19930;-94
2023/03/02 06:15:20;;;;;;;;;;;;;;;;;;5142997;27;19925;-94
2023/03/02 06:17:46;;;;;;;;;;;;;;;;;;5142451;27;19919;-94
2023/03/02 06:20:12;;;;;;;;;;;;;;;;;;5130923;27;19919;-95
2023/03/02 06:22:39;;;;;;;;;;;;;;;;;;5108654;27;20416;-94
2023/03/02 06:25:05;;;;;;;;;;;;;;;;;;5135750;27;19957;-95
2023/03/02 06:27:31;;;;;;;;;;;;;;;;;;5122197;27;19919;-95
2023/03/02 06:29:57;;;;;;;;;;;;;;;;;;5121679;27;19926;-94
2023/03/02 06:32:23;;;;;;;;;;;;;;;;;;5121317;27;20386;-93
2023/03/02 06:34:49;;;;;;;;;;;;;;;;;;5121809;27;19923;-94
2023/03/02 06:37:15;;;;;;;;;;;;;;;;;;5121854;27;19926;-94
2023/03/02 06:39:41;;;;;;;;;;;;;;;;;;5121211;27;19923;-94
2023/03/02 06:42:07;;;;;;;;;;;;;;;;;;5121806;27;19926;-93
2023/03/02 06:44:33;;;;;;;;;;;;;;;;;;5121435;27;19925;-92
2023/03/02 06:46:58;;;;;;;;;;;;;;;;;;5127781;27;19919;-94
2023/03/02 06:49:24;;;;;;;;;;;;;;;;;;5137399;27;20272;-94
2023/03/02 06:51:50;;;;;;;;;;;;;;;;;;5140934;27;20005;-94
2023/03/02 06:54:16;;;;;;;;;;;;;;;;;;5141624;27;19926;-94
2023/03/02 06:56:42;;;;;;;;;;;;;;;;;;5141672;27;19923;-93
2023/03/02 06:59:08;;;;;;;;;;;;;;;;;;5120913;27;19919;-94
2023/03/02 07:01:34;;;;;;;;;;;;;;;;;;5121024;27;19919;-94
2023/03/02 07:04:00;;;;;;;;;;;;;;;;;;5120859;27;20393;-93
2023/03/02 07:06:26;;;;;;;;;;;;;;;;;;5121031;27;20014;-94
2023/03/02 07:08:52;;;;;;;;;;;;;;;;;;5122535;27;19919;-94
2023/03/02 07:11:18;;;;;;;;;;;;;;;;;;5141580;27;19923;-93
2023/03/02 07:13:44;;;;;;;;;;;;;;;;;;5124610;27;19927;-94
2023/03/02 07:16:09;;;;;;;;;;;;;;;;;;5100528;27;19968;-94
2023/03/02 07:18:35;;;;;;;;;;;;;;;;;;5100187;27;19919;-94
2023/03/02 07:21:01;;;;;;;;;;;;;;;;;;5099671;27;19924;-92
2023/03/02 07:23:27;;;;;;;;;;;;;;;;;;5117130;27;20038;-94
2023/03/02 07:25:53;;;;;;;;;;;;;;;;;;5100266;27;19927;-93
2023/03/02 07:28:20;;;;;;;;;;;;;;;;;;5100120;27;19923;-93
2023/03/02 07:30:46;;;;;;;;;;;;;;;;;;5099984;28;19928;-95
2023/03/02 07:33:12;;;;;;;;;;;;;;;;;;5116761;27;19919;-94
2023/03/02 07:35:38;;;;;;;;;;;;;;;;;;5116349;27;19923;-95
2023/03/02 07:38:04;;;;;;;;;;;;;;;;;;5120876;27;19924;-95
2023/03/02 07:40:30;;;;;;;;;;;;;;;;;;5099628;27;19944;-94
2023/03/02 07:42:56;;;;;;;;;;;;;;;;;;5099632;28;19923;-94
2023/03/02 07:45:23;;;;;;;;;;;;;;;;;;5099440;28;19962;-94
2023/03/02 07:47:49;;;;;;;;;;;;;;;;;;5099692;28;19997;-94
2023/03/02 07:50:15;;;;;;;;;;;;;;;;;;5099251;28;19920;-95
2023/03/02 07:52:41;;;;;;;;;;;;;;;;;;5099567;28;19919;-94
2023/03/02 07:55:07;;;;;;;;;;;;;;;;;;5099610;28;20010;-93
2023/03/02 07:57:33;;;;;;;;;;;;;;;;;;5099708;28;20613;-92
2023/03/02 07:59:59;;;;;;;;;;;;;;;;;;5113702;27;20020;-95
2023/03/02 08:02:25;;;;;;;;;;;;;;;;;;5122232;27;20026;-92
2023/03/02 08:04:51;;;;;;;;;;;;;;;;;;5103533;27;19970;-93
2023/03/02 08:07:17;;;;;;;;;;;;;;;;;;5139958;27;19927;-92
2023/03/02 08:09:43;;;;;;;;;;;;;;;;;;5144106;27;20013;-93
2023/03/02 08:12:09;;;;;;;;;;;;;;;;;;5144500;27;20390;-93
2023/03/02 08:14:34;;;;;;;;;;;;;;;;;;5145174;27;20024;-93
2023/03/02 08:17:01;;;;;;;;;;;;;;;;;;5123989;27;20025;-93
2023/03/02 08:19:27;;;;;;;;;;;;;;;;;;5123347;27;19919;-94
2023/03/02 08:21:53;;;;;;;;;;;;;;;;;;5123828;27;19926;-94
2023/03/02 08:24:19;;;;;;;;;;;;;;;;;;5131759;27;19941;-93
2023/03/02 08:26:45;;;;;;;;;;;;;;;;;;5123562;27;20358;-94
2023/03/02 08:29:10;;;;;;;;;;;;;;;;;;5123437;27;19967;-94
2023/03/02 08:31:36;;;;;;;;;;;;;;;;;;5123303;27;19948;-94
2023/03/02 08:34:02;;;;;;;;;;;;;;;;;;5123379;27;19926;-94
2023/03/02 08:36:28;;;;;;;;;;;;;;;;;;5123683;27;20265;-93
2023/03/02 08:38:54;;;;;;;;;;;;;;;;;;5123301;27;20334;-93
2023/03/02 08:41:20;;;;;;;;;;;;;;;;;;5133963;27;19918;-94
2023/03/02 08:43:46;;;;;;;;;;;;;;;;;;5144296;27;20363;-93
2023/03/02 08:46:12;;;;;;;;;;;;;;;;;;5144169;27;20397;-93
2023/03/02 08:48:38;;;;;;;;;;;;;;;;;;5131337;27;20473;-93
2023/03/02 08:51:04;;;;;;;;;;;;;;;;;;5102308;27;19927;-92
2023/03/02 08:53:30;;;;;;;;;;;;;;;;;;5102677;27;20394;-93
2023/03/02 08:55:56;;;;;;;;;;;;;;;;;;5102216;27;19968;-93
2023/03/02 08:58:22;;;;;;;;;;;;;;;;;;5102397;27;20445;-96
2023/03/02 09:00:47;;;;;;;;;;;;;;;;;;5102851;27;19972;-95
2023/03/02 09:03:13;;;;;;;;;;;;;;;;;;5102259;27;19975;-94
2023/03/02 09:05:39;;;;;;;;;;;;;;;;;;5102560;27;19920;-95
2023/03/02 09:08:05;;;;;;;;;;;;;;;;;;5102912;27;19919;-95
2023/03/02 09:10:31;;;;;;;;;;;;;;;;;;5118578;27;19938;-95
2023/03/02 09:12:57;;;;;;;;;;;;;;;;;;5123478;27;19919;-94
2023/03/02 09:15:23;;;;;;;;;;;;;;;;;;5123400;27;20393;-96
2023/03/02 09:17:49;;;;;;;;;;;;;;;;;;5143538;27;20275;-96
2023/03/02 09:20:16;;;;;;;;;;;;;;;;;;5133653;27;19919;-94
2023/03/02 09:22:47;;;;;;;;;;;;;;;;;;5102198;27;20288;-95
2023/03/02 09:25:13;;;;;;;;;;;;;;;;;;5102112;27;19935;-93
2023/03/02 09:27:39;;;;;;;;;;;;;;;;;;5101911;27;20027;-95
2023/03/02 09:30:05;;;;;;;;;;;;;;;;;;5101574;27;19980;-95
2023/03/02 09:32:31;;;;;;;;;;;;;;;;;;5108624;27;19945;-93
2023/03/02 09:34:56;;;;;;;;;;;;;;;;;;5125203;27;19926;-94
2023/03/02 09:37:22;;;;;;;;;;;;;;;;;;5119095;27;20395;-95
2023/03/02 09:39:48;;;;;;;;;;;;;;;;;;5133211;27;20436;-95
2023/03/02 09:42:14;;;;;;;;;;;;;;;;;;5121722;27;19919;-95
2023/03/02 09:44:40;;;;;;;;;;;;;;;;;;5126019;27;19925;-96
2023/03/02 09:47:06;;;;;;;;;;;;;;;;;;5120900;27;19924;-95
2023/03/02 09:49:32;;;;;;;;;;;;;;;;;;5115471;27;19938;-94
2023/03/02 09:51:58;;;;;;;;;;;;;;;;;;5122536;27;20455;-93
2023/03/02 09:54:24;;;;;;;;;;;;;;;;;;5117640;27;19927;-95
2023/03/02 09:56:50;;;;;;;;;;;;;;;;;;5124725;27;19926;-95
2023/03/02 09:59:16;;;;;;;;;;;;;;;;;;5128402;27;19919;-94
2023/03/02 10:01:41;;;;;;;;;;;;;;;;;;5126799;27;19926;-95
2023/03/02 10:04:07;;;;;;;;;;;;;;;;;;5122356;27;19942;-95
2023/03/02 10:06:33;;;;;;;;;;;;;;;;;;5118067;27;19924;-93
2023/03/02 10:08:59;;;;;;;;;;;;;;;;;;5123771;27;19926;-95
2023/03/02 10:11:25;;;;;;;;;;;;;;;;;;5113279;27;19992;-95
2023/03/02 10:13:51;;;;;;;;;;;;;;;;;;5123563;27;20280;-94
2023/03/02 10:16:17;;;;;;;;;;;;;;;;;;5125998;27;20304;-94
2023/03/02 10:18:43;;;;;;;;;;;;;;;;;;5120594;27;19998;-95
2023/03/02 10:21:09;;;;;;;;;;;;;;;;;;5137665;27;20014;-95
2023/03/02 10:23:35;;;;;;;;;;;;;;;;;;5129578;27;20260;-95
2023/03/02 10:26:01;;;;;;;;;;;;;;;;;;5133323;27;20015;-96
2023/03/02 10:28:27;;;;;;;;;;;;;;;;;;5116219;27;19969;-96
2023/03/02 10:30:52;;;;;;;;;;;;;;;;;;5117857;27;19923;-93
2023/03/02 10:33:18;;;;;;;;;;;;;;;;;;5117655;27;19919;-95
2023/03/02 10:35:45;;;;;;;;;;;;;;;;;;5118082;27;19926;-96
2023/03/02 10:38:10;;;;;;;;;;;;;;;;;;5113575;27;19927;-94
2023/03/02 10:40:36;;;;;;;;;;;;;;;;;;5121960;27;20284;-96
2023/03/02 10:43:02;;;;;;;;;;;;;;;;;;5122027;27;19919;-96
2023/03/02 10:45:28;;;;;;;;;;;;;;;;;;5130163;27;19926;-95
2023/03/02 10:47:54;;;;;;;;;;;;;;;;;;5133248;27;19923;-95
2023/03/02 10:50:20;;;;;;;;;;;;;;;;;;5120398;27;19919;-95
2023/03/02 10:52:46;;;;;;;;;;;;;;;;;;5121145;27;19926;-96
2023/03/02 10:55:12;;;;;;;;;;;;;;;;;;5120681;27;19919;-95
2023/03/02 10:57:38;;;;;;;;;;;;;;;;;;5114803;27;19927;-95
2023/03/02 11:00:04;;;;;;;;;;;;;;;;;;5115385;27;19923;-94
2023/03/02 11:02:30;;;;;;;;;;;;;;;;;;5120648;27;19919;-94
2023/03/02 11:04:57;;;;;;;;;;;;;;;;;;5120870;27;19919;-95
2023/03/02 11:07:22;;;;;;;;;;;;;;;;;;5119537;27;20010;-94
2023/03/02 11:09:48;;;;;;;;;;;;;;;;;;5120191;27;19978;-94
2023/03/02 11:12:15;;;;;;;;;;;;;;;;;;5121590;27;19986;-94
2023/03/02 11:14:41;;;;;;;;;;;;;;;;;;5103906;27;19931;-95
2023/03/02 11:17:07;;;;;;;;;;;;;;;;;;5104132;27;19932;-92
2023/03/02 11:19:33;;;;;;;;;;;;;;;;;;5118319;27;19923;-95
2023/03/02 11:21:59;;;;;;;;;;;;;;;;;;5120919;27;20003;-95
2023/03/02 11:24:25;;;;;;;;;;;;;;;;;;5129279;27;19926;-96
2023/03/02 11:26:51;;;;;;;;;;;;;;;;;;5124971;27;20014;-96
2023/03/02 11:29:17;;;;;;;;;;;;;;;;;;5100449;28;19966;-96
2023/03/02 11:31:43;;;;;;;;;;;;;;;;;;5100917;27;19924;-96
2023/03/02 11:34:10;;;;;;;;;;;;;;;;;;5100014;27;19920;-96
2023/03/02 11:36:36;;;;;;;;;;;;;;;;;;5136851;27;19986;-96
2023/03/02 11:39:08;;;;;;;;;;;;;;;;;;5139451;27;20370;-93
2023/03/02 11:41:35;;;;;;;;;;;;;;;;;;5136553;27;20285;-96
2023/03/02 11:44:01;;;;;;;;;;;;;;;;;;5099999;28;20003;-96
2023/03/02 11:46:29;;;;;;;;;;;;;;;;;;5101218;27;19919;-96
2023/03/02 11:52:02;;;;;;;;;;;;;;;;;;5148108;27;19974;-96
2023/03/02 11:54:28;;;;;;;;;;;;;;;;;;5125769;27;19954;-95
2023/03/02 11:56:54;;;;;;;;;;;;;;;;;;5117151;28;19924;-95
2023/03/02 11:59:20;;;;;;;;;;;;;;;;;;5127698;27;19919;-93
2023/03/02 12:02:04;;;;;;;;;;;;;;;;;;5146800;27;19926;-94
2023/03/02 12:04:33;;;;;;;;;;;;;;;;;;5120493;27;19926;-93
2023/03/02 12:06:59;;;;;;;;;;;;;;;;;;5120238;27;19919;-93
2023/03/02 12:09:29;;;;;;;;;;;;;;;;;;5116161;27;19930;-93
2023/03/02 12:11:55;;;;;;;;;;;;;;;;;;5120389;28;19931;-95
2023/03/02 12:14:21;;;;;;;;;;;;;;;;;;5117050;28;20373;-93
2023/03/02 12:16:47;;;;;;;;;;;;;;;;;;5117299;28;19920;-95
2023/03/02 12:19:13;;;;;;;;;;;;;;;;;;5107888;28;19923;-95
2023/03/02 12:21:39;;;;;;;;;;;;;;;;;;5124047;27;20012;-95
2023/03/02 12:24:05;;;;;;;;;;;;;;;;;;5120410;28;19919;-96
2023/03/02 12:26:31;;;;;;;;;;;;;;;;;;5099903;28;20334;-95
2023/03/02 12:28:57;;;;;;;;;;;;;;;;;;5099528;28;20333;-96
2023/03/02 12:31:23;;;;;;;;;;;;;;;;;;5099155;28;20026;-93
2023/03/02 12:34:00;;;;;;;;;;;;;;;;;;5099092;28;19973;-96
2023/03/02 12:36:26;;;;;;;;;;;;;;;;;;5099436;28;19968;-95
2023/03/02 12:38:52;;;;;;;;;;;;;;;;;;5099985;28;19926;-92
2023/03/02 12:41:18;;;;;;;;;;;;;;;;;;5125219;28;19926;-95
2023/03/02 12:43:44;;;;;;;;;;;;;;;;;;5099839;28;19930;-95
2023/03/02 12:46:10;;;;;;;;;;;;;;;;;;5137568;27;19919;-94
2023/03/02 12:48:35;;;;;;;;;;;;;;;;;;5117683;28;20009;-93
2023/03/02 12:51:01;;;;;;;;;;;;;;;;;;5101545;27;19974;-94
2023/03/02 12:53:27;;;;;;;;;;;;;;;;;;5102861;27;20003;-95
2023/03/02 12:55:53;;;;;;;;;;;;;;;;;;5103273;27;20357;-96
2023/03/02 12:58:19;;;;;;;;;;;;;;;;;;5103037;27;19928;-95
2023/03/02 13:00:50;;;;;;;;;;;;;;;;;;5115276;27;19929;-96
2023/03/02 13:03:17;;;;;;;;;;;;;;;;;;5120180;27;19926;-96
2023/03/02 13:05:43;;;;;;;;;;;;;;;;;;5120347;27;19923;-95
2023/03/02 13:08:09;;;;;;;;;;;;;;;;;;5125704;27;19919;-95
2023/03/02 13:10:35;;;;;;;;;;;;;;;;;;5124818;27;19927;-95
2023/03/02 13:13:01;;;;;;;;;;;;;;;;;;5102818;27;20384;-93
2023/03/02 13:15:27;;;;;;;;;;;;;;;;;;5102373;27;19920;-93
2023/03/02 13:17:53;;;;;;;;;;;;;;;;;;5102922;27;19919;-95
2023/03/02 13:20:18;;;;;;;;;;;;;;;;;;5110593;27;19918;-94
2023/03/02 13:22:44;;;;;;;;;;;;;;;;;;5144042;27;19930;-96
2023/03/02 13:28:06;;;;;;;;;;;;;;;;;;5119358;27;20300;-93
2023/03/02 13:30:32;;;;;;;;;;;;;;;;;;5115458;27;20291;-95
2023/03/02 13:32:59;;;;;;;;;;;;;;;;;;5131596;27;19921;-95
2023/03/02 13:35:25;;;;;;;;;;;;;;;;;;5128903;27;19923;-93
2023/03/02 13:37:51;;;;;;;;;;;;;;;;;;5112541;27;19964;-95
2023/03/02 13:40:17;;;;;;;;;;;;;;;;;;5108041;27;19927;-96
2023/03/02 13:42:52;;;;;;;;;;;;;;;;;;5110433;27;19958;-96
2023/03/02 13:45:18;;;;;;;;;;;;;;;;;;5102348;27;19941;-95
2023/03/02 13:47:44;;;;;;;;;;;;;;;;;;5119534;27;19923;-95
2023/03/02 13:50:10;;;;;;;;;;;;;;;;;;5129926;27;19919;-96
2023/03/02 13:52:36;;;;;;;;;;;;;;;;;;5132413;27;19924;-96
2023/03/02 13:55:02;;;;;;;;;;;;;;;;;;5119262;27;20368;-96
2023/03/02 13:57:28;;;;;;;;;;;;;;;;;;5136731;27;19926;-96
2023/03/02 13:59:54;;;;;;;;;;;;;;;;;;5143089;27;19922;-95
2023/03/02 14:02:33;;;;;;;;;;;;;;;;;;5130927;27;19919;-95
2023/03/02 14:05:03;;;;;;;;;;;;;;;;;;5112305;27;19920;-94
2023/03/02 14:07:29;;;;;;;;;;;;;;;;;;5118830;27;19919;-94
2023/03/02 14:09:55;;;;;;;;;;;;;;;;;;5121959;27;20014;-95
2023/03/02 14:12:21;;;;;;;;;;;;;;;;;;5121918;27;19970;-95
2023/03/02 14:14:47;;;;;;;;;;;;;;;;;;5121640;27;19930;-95
2023/03/02 14:17:16;;;;;;;;;;;;;;;;;;5105128;27;19919;-95
2023/03/02 14:22:15;;;;;;;;;;;;;;;;;;5135020;27;19968;-92
2023/03/02 14:30:38;;;;;;;;;;;;;;;;;;5155060;27;19918;-96
2023/03/02 14:33:04;;;;;;;;;;;;;;;;;;5126910;27;19924;-94
2023/03/02 14:35:29;;;;;;;;;;;;;;;;;;5101228;27;20018;-96
2023/03/02 14:37:55;;;;;;;;;;;;;;;;;;5107922;27;20018;-95
2023/03/02 14:43:10;;;;;;;;;;;;;;;;;;5120819;27;19940;-96
2023/03/02 14:45:36;;;;;;;;;;;;;;;;;;5112889;27;19919;-94
2023/03/02 14:48:06;;;;;;;;;;;;;;;;;;5100811;27;19919;-94
2023/03/02 14:50:32;;;;;;;;;;;;;;;;;;5110924;27;19919;-95
2023/03/02 14:52:58;;;;;;;;;;;;;;;;;;5123756;27;20410;-94
2023/03/02 14:55:26;;;;;;;;;;;;;;;;;;5108090;27;19927;-94
2023/03/02 14:58:00;;;;;;;;;;;;;;;;;;5108570;27;19985;-93
2023/03/02 15:00:26;;;;;;;;;;;;;;;;;;5123501;27;19926;-95
2023/03/02 15:05:58;;;;;;;;;;;;;;;;;;5152334;27;19919;-95
2023/03/02 15:08:27;;;;;;;;;;;;;;;;;;5122501;27;19976;-94
2023/03/02 15:10:55;;;;;;;;;;;;;;;;;;5115516;27;20380;-95
2023/03/02 15:13:27;;;;;;;;;;;;;;;;;;5125165;27;19926;-95
2023/03/02 15:15:53;;;;;;;;;;;;;;;;;;5120636;27;20739;-95
2023/03/02 15:18:30;;;;;;;;;;;;;;;;;;5116892;27;19919;-95
2023/03/02 15:24:10;;;;;;;;;;;;;;;;;;5112004;27;19986;-95
2023/03/02 15:26:57;;;;;;;;;;;;;;;;;;5115638;27;20340;-95
2023/03/02 15:29:44;;;;;;;;;;;;;;;;;;5113674;27;19923;-95
2023/03/02 15:32:30;;;;;;;;;;;;;;;;;;5107909;27;23004;-94
2023/03/02 15:38:10;;;;;;;;;;;;;;;;;;5148009;27;19954;-96
2023/03/02 15:40:35;;;;;;;;;;;;;;;;;;5119814;27;19923;-94
2023/03/02 15:43:01;;;;;;;;;;;;;;;;;;5120397;27;19919;-95
2023/03/02 15:45:38;;;;;;;;;;;;;;;;;;5120719;27;20269;-94
2023/03/02 15:48:04;;;;;;;;;;;;;;;;;;5120612;27;19926;-94
2023/03/02 15:50:30;;;;;;;;;;;;;;;;;;5116750;28;19921;-93
2023/03/02 15:52:57;;;;;;;;;;;;;;;;;;5117491;27;20295;-95
2023/03/02 15:55:23;;;;;;;;;;;;;;;;;;5130544;27;19918;-94
2023/03/02 15:57:49;;;;;;;;;;;;;;;;;;5122774;28;20006;-95
2023/03/02 16:00:14;;;;;;;;;;;;;;;;;;5111247;28;19924;-94
2023/03/02 16:02:40;;;;;;;;;;;;;;;;;;5115110;27;19920;-95
2023/03/02 16:05:12;;;;;;;;;;;;;;;;;;5118471;27;20010;-94
2023/03/02 16:07:50;;;;;;;;;;;;;;;;;;5110765;27;19919;-95
2023/03/02 16:10:30;;;;;;;;;;;;;;;;;;5120012;27;19923;-95
2023/03/02 16:12:59;;;;;;;;;;;;;;;;;;5127962;27;19931;-95
2023/03/02 16:15:25;;;;;;;;;;;;;;;;;;5118284;27;20498;-95
2023/03/02 16:17:51;;;;;;;;;;;;;;;;;;5104892;27;19963;-94
2023/03/02 16:20:17;;;;;;;;;;;;;;;;;;5120634;27;20384;-94
2023/03/02 16:22:49;;;;;;;;;;;;;;;;;;5123845;28;19919;-95
2023/03/02 16:25:18;;;;;;;;;;;;;;;;;;5102255;27;19923;-94
2023/03/02 16:27:58;;;;;;;;;;;;;;;;;;5120850;27;19919;-94
2023/03/02 16:30:23;;;;;;;;;;;;;;;;;;5128127;27;19919;-94
2023/03/02 16:32:49;;;;;;;;;;;;;;;;;;5121194;27;19923;-94
2023/03/02 16:35:18;;;;;;;;;;;;;;;;;;5118663;27;20269;-94
2023/03/02 16:37:44;;;;;;;;;;;;;;;;;;5115019;27;19944;-95
2023/03/02 16:40:10;;;;;;;;;;;;;;;;;;5123270;27;20006;-94
2023/03/02 16:42:36;;;;;;;;;;;;;;;;;;5123869;27;20384;-93
2023/03/02 16:45:20;;;;;;;;;;;;;;;;;;5135425;27;19919;-95
2023/03/02 16:47:45;;;;;;;;;;;;;;;;;;5143824;27;19918;-93
2023/03/02 16:50:11;;;;;;;;;;;;;;;;;;5160545;27;20285;-95
2023/03/02 16:52:37;;;;;;;;;;;;;;;;;;5134500;27;20307;-95
2023/03/02 16:55:08;;;;;;;;;;;;;;;;;;5102795;27;19920;-94
2023/03/02 16:57:34;;;;;;;;;;;;;;;;;;5119215;27;19952;-94
2023/03/02 17:00:00;;;;;;;;;;;;;;;;;;5143182;27;19918;-94
2023/03/02 17:02:28;;;;;;;;;;;;;;;;;;5129988;27;20311;-95
2023/03/02 17:04:53;;;;;;;;;;;;;;;;;;5133654;27;19940;-96
2023/03/02 17:07:19;;;;;;;;;;;;;;;;;;5133791;27;20001;-94
2023/03/02 17:09:45;;;;;;;;;;;;;;;;;;5102636;27;19998;-93
2023/03/02 17:12:11;;;;;;;;;;;;;;;;;;5102255;27;19930;-95
2023/03/02 17:14:37;;;;;;;;;;;;;;;;;;5102020;27;19920;-92
2023/03/02 17:17:03;;;;;;;;;;;;;;;;;;5102071;27;20301;-93
2023/03/02 17:19:29;;;;;;;;;;;;;;;;;;5114265;27;19918;-96